Time;durP1;ratioP1;P1;durP2;ratioP2;P2;SDS_P1;SDS_P2;PMS_P1;PMS_P2;Temp;Humidity;BMP_temperature;BMP_pressure;BME280_temperature;BME280_humidity;BME280_pressure;Samples;Min_cycle;Max_cycle;Signal;HPM_P1;HPM_P2
2022/09/04 00:01:19;;;;;;;10.75;7.80;;;;;;;16.82;100.00;100434.56;5053570;28;20399;-72
2022/09/04 00:03:57;;;;;;;10.07;7.93;;;;;;;16.80;100.00;100436.56;5053817;28;20068;-72
2022/09/04 00:06:32;;;;;;;13.38;10.38;;;;;;;16.66;100.00;100437.66;5053615;28;20057;-72
2022/09/04 00:09:11;;;;;;;15.55;12.57;;;;;;;16.71;100.00;100437.31;5053735;28;20483;-72
2022/09/04 00:11:49;;;;;;;16.42;13.07;;;;;;;16.59;100.00;100433.75;5053264;28;20048;-72
2022/09/04 00:14:21;;;;;;;17.05;13.02;;;;;;;16.63;100.00;100434.38;5053439;28;20049;-72
2022/09/04 00:17:02;;;;;;;17.60;14.27;;;;;;;16.63;100.00;100437.06;5053590;28;20133;-72
2022/09/04 00:19:40;;;;;;;17.30;14.07;;;;;;;16.65;100.00;100443.16;5053203;28;20041;-72
2022/09/04 00:22:20;;;;;;;18.48;14.32;;;;;;;16.59;100.00;100444.50;5053508;28;20049;-72
2022/09/04 00:24:54;;;;;;;16.67;13.75;;;;;;;16.64;100.00;100452.22;5053349;28;20395;-72
2022/09/04 00:27:25;;;;;;;17.30;13.15;;;;;;;16.41;100.00;100449.59;5053599;28;20372;-72
2022/09/04 00:30:00;;;;;;;11.27;8.82;;;;;;;16.40;100.00;100463.16;5053490;28;20045;-72
2022/09/04 00:32:38;;;;;;;10.48;7.05;;;;;;;16.31;100.00;100468.31;5053023;28;20128;-72
2022/09/04 00:35:14;;;;;;;8.55;6.38;;;;;;;16.09;100.00;100480.91;5053080;28;20055;-72
2022/09/04 00:37:48;;;;;;;8.38;6.10;;;;;;;16.04;100.00;100478.59;5052864;28;20208;-71
2022/09/04 00:40:25;;;;;;;7.53;5.40;;;;;;;15.85;100.00;100479.19;5053205;28;20051;-72
2022/09/04 00:43:25;;;;;;;11.02;6.18;;;;;;;16.00;100.00;100475.28;5053235;28;20053;-72
2022/09/04 00:46:22;;;;;;;9.30;5.95;;;;;;;15.83;100.00;100466.84;5052659;28;20044;-72
2022/09/04 00:49:16;;;;;;;9.48;6.10;;;;;;;15.97;100.00;100474.66;5053089;28;20486;-72
2022/09/04 00:51:55;;;;;;;8.02;6.40;;;;;;;15.95;100.00;100464.03;5052585;28;20124;-75
2022/09/04 00:54:54;;;;;;;8.50;6.18;;;;;;;15.98;100.00;100471.00;5052875;28;20442;-71
2022/09/04 00:57:56;;;;;;;7.55;6.15;;;;;;;15.95;100.00;100465.88;5052412;28;20048;-71
2022/09/04 01:00:26;;;;;;;10.68;6.40;;;;;;;15.94;100.00;100461.47;5052530;28;20045;-72
2022/09/04 01:03:18;;;;;;;8.50;6.10;;;;;;;16.02;100.00;100457.19;5052767;28;20049;-73
2022/09/04 01:06:18;;;;;;;8.10;6.00;;;;;;;15.96;100.00;100462.19;5052634;28;20426;-73
2022/09/04 01:09:07;;;;;;;9.52;5.85;;;;;;;15.93;100.00;100457.94;5052346;28;20045;-74
2022/09/04 01:11:42;;;;;;;8.90;6.00;;;;;;;15.86;100.00;100464.75;5052459;28;20128;-74
2022/09/04 01:14:18;;;;;;;9.95;6.32;;;;;;;15.86;100.00;100464.75;5052416;28;20476;-74
2022/09/04 01:16:51;;;;;;;10.45;6.30;;;;;;;15.88;100.00;100465.50;5050903;28;20080;-74
2022/09/04 01:19:30;;;;;;;8.23;5.90;;;;;;;15.93;100.00;100460.63;5052240;28;20041;-74
2022/09/04 01:22:11;;;;;;;9.27;5.65;;;;;;;15.96;100.00;100476.50;5052239;28;20467;-73
2022/09/04 01:24:58;;;;;;;8.85;6.45;;;;;;;15.93;100.00;100471.38;5052078;28;20418;-73
2022/09/04 01:27:34;;;;;;;7.32;5.72;;;;;;;15.95;100.00;100465.88;5052193;28;20499;-73
2022/09/04 01:30:07;;;;;;;10.70;6.50;;;;;;;16.00;100.00;100469.88;5052491;28;20395;-73
2022/09/04 01:32:45;;;;;;;8.18;6.38;;;;;;;16.01;100.00;100476.97;5051990;28;20075;-74
2022/09/04 01:35:26;;;;;;;10.43;6.40;;;;;;;16.03;100.00;100483.13;5052261;28;20509;-75
2022/09/04 01:38:02;;;;;;;8.65;6.35;;;;;;;16.10;100.00;100486.16;5051983;28;20041;-75
2022/09/04 01:40:38;;;;;;;9.60;6.55;;;;;;;16.14;100.00;100482.28;5051714;28;20554;-77
2022/09/04 01:43:10;;;;;;;9.70;6.20;;;;;;;16.13;100.00;100491.31;5051976;28;20434;-77
2022/09/04 01:46:11;;;;;;;8.93;5.90;;;;;;;16.12;100.00;100489.63;5051727;28;20049;-78
2022/09/04 01:48:47;;;;;;;9.85;6.35;;;;;;;16.12;100.00;100494.13;5031424;28;20450;-79
2022/09/04 01:51:33;;;;;;;9.20;6.53;;;;;;;16.21;100.00;100499.66;5051994;28;20045;-74
2022/09/04 01:54:23;;;;;;;7.78;5.53;;;;;;;16.36;100.00;100496.69;5051838;28;20041;-75
2022/09/04 01:57:04;;;;;;;9.27;5.90;;;;;;;16.46;100.00;100501.22;5051309;28;20123;-75
2022/09/04 01:59:47;;;;;;;9.13;6.25;;;;;;;16.27;100.00;100504.53;5051352;28;20463;-74
2022/09/04 02:02:27;;;;;;;9.55;6.45;;;;;;;16.15;100.00;100500.13;5051746;28;20041;-73
2022/09/04 02:05:04;;;;;;;8.90;5.93;;;;;;;16.10;100.00;100502.31;5051793;28;20076;-73
2022/09/04 02:07:45;;;;;;;9.20;6.18;;;;;;;16.16;100.00;100496.44;5051713;28;20045;-73
2022/09/04 02:10:27;;;;;;;8.63;5.65;;;;;;;16.28;100.00;100500.84;5051829;28;20491;-72
2022/09/04 02:13:07;;;;;;;6.88;5.80;;;;;;;16.50;100.00;100502.69;5051425;28;20048;-71
2022/09/04 02:15:44;;;;;;;10.00;6.00;;;;;;;16.38;100.00;100509.03;5051378;28;20071;-72
2022/09/04 02:18:23;;;;;;;10.57;6.32;;;;;;;16.41;100.00;100506.13;5051854;28;20040;-72
2022/09/04 02:20:59;;;;;;;9.10;6.28;;;;;;;16.48;100.00;100483.09;5051485;28;20088;-73
2022/09/04 02:23:34;;;;;;;8.73;5.90;;;;;;;16.47;100.00;100494.84;5054303;28;20041;-73
2022/09/04 02:26:12;;;;;;;9.35;6.60;;;;;;;16.37;100.00;100499.25;5055739;28;20041;-72
2022/09/04 02:28:52;;;;;;;9.32;6.18;;;;;;;16.42;100.00;100494.38;5055666;28;20044;-71
2022/09/04 02:31:30;;;;;;;8.48;5.97;;;;;;;16.29;100.00;100502.56;5054398;28;20134;-71
2022/09/04 02:34:06;;;;;;;9.02;5.55;;;;;;;16.26;100.00;100505.50;5055437;28;20041;-71
2022/09/04 02:36:41;;;;;;;9.27;6.28;;;;;;;16.44;100.00;100494.25;5055443;28;20085;-72
2022/09/04 02:39:21;;;;;;;7.72;6.40;;;;;;;16.37;100.00;100495.72;5055564;28;20051;-72
2022/09/04 02:42:02;;;;;;;8.93;6.28;;;;;;;16.33;100.00;100503.19;5055140;28;20076;-72
2022/09/04 02:44:43;;;;;;;9.18;6.47;;;;;;;16.23;100.00;100500.38;5055154;28;20083;-72
2022/09/04 02:47:23;;;;;;;9.15;6.47;;;;;;;16.40;100.00;100498.16;5054808;28;20076;-71
2022/09/04 02:49:59;;;;;;;10.32;6.32;;;;;;;16.48;100.00;100501.09;5055208;28;20117;-71
2022/09/04 02:52:58;;;;;;;9.73;6.60;;;;;;;16.33;100.00;100497.81;5055189;28;20151;-72
2022/09/04 02:55:45;;;;;;;9.13;6.28;;;;;;;16.31;100.00;100497.06;5055253;28;20056;-72
2022/09/04 02:58:26;;;;;;;9.95;6.28;;;;;;;16.18;100.00;100504.41;5055083;28;20094;-73
2022/09/04 03:01:04;;;;;;;12.75;6.72;;;;;;;16.21;100.00;100501.44;5055074;28;20045;-73
2022/09/04 03:03:39;;;;;;;9.65;6.18;;;;;;;16.29;100.00;100507.94;5055020;28;20051;-73
2022/09/04 03:06:12;;;;;;;12.32;6.80;;;;;;;16.17;100.00;100505.38;5055060;28;20048;-73
2022/09/04 03:08:45;;;;;;;10.98;6.57;;;;;;;16.01;100.00;100509.28;5054836;28;20041;-74
2022/09/04 03:11:23;;;;;;;9.77;6.80;;;;;;;15.92;100.00;100509.13;5054801;28;20036;-73
2022/09/04 03:13:59;;;;;;;12.18;6.78;;;;;;;15.85;100.00;100508.78;5054584;28;20051;-74
2022/09/04 03:16:33;;;;;;;9.10;6.72;;;;;;;15.79;100.00;100508.38;5054945;28;20120;-73
2022/09/04 03:19:10;;;;;;;9.88;6.68;;;;;;;15.78;100.00;100507.53;5054807;28;20454;-73
2022/09/04 03:21:50;;;;;;;10.23;6.43;;;;;;;15.87;100.00;100506.81;5054414;28;20041;-74
2022/09/04 03:24:26;;;;;;;8.00;6.10;;;;;;;15.96;100.00;100508.78;5054591;28;20444;-73
2022/09/04 03:26:56;;;;;;;10.23;6.43;;;;;;;15.82;100.00;100502.75;5054230;28;20048;-74
2022/09/04 03:29:35;;;;;;;8.73;6.38;;;;;;;15.76;100.00;100498.75;5054514;28;20041;-73
2022/09/04 03:32:11;;;;;;;10.52;6.60;;;;;;;15.83;100.00;100502.66;5054332;28;20407;-74
2022/09/04 03:34:52;;;;;;;9.50;6.22;;;;;;;15.74;100.00;100511.44;5052767;28;20041;-74
2022/09/04 03:37:46;;;;;;;8.55;6.20;;;;;;;15.78;100.00;100518.28;5054398;28;20041;-74
2022/09/04 03:40:36;;;;;;;13.00;6.80;;;;;;;15.79;100.00;100520.00;5027816;28;20057;-70
2022/09/04 03:43:23;;;;;;;11.50;6.68;;;;;;;15.79;100.00;100528.06;5054229;28;20041;-71
2022/09/04 03:46:02;;;;;;;8.70;6.60;;;;;;;15.78;100.00;100529.06;5054041;28;20072;-71
2022/09/04 03:48:45;;;;;;;9.68;6.20;;;;;;;15.72;100.00;100529.50;5054382;28;20056;-70
2022/09/04 03:51:23;;;;;;;;;;;;;;;15.61;100.00;100542.94;5054533;28;20454;-70
2022/09/04 03:54:00;;;;;;;9.82;5.80;;;;;;;15.61;100.00;100545.63;5053988;28;20393;-71
2022/09/04 03:56:46;;;;;;;8.45;6.05;;;;;;;15.60;100.00;100542.06;5054083;28;20045;-71
2022/09/04 03:59:24;;;;;;;7.40;6.03;;;;;;;15.66;100.00;100552.38;5054142;28;20495;-71
2022/09/04 04:01:59;;;;;;;7.25;5.22;;;;;;;15.71;100.00;100550.16;5053457;28;20045;-71
2022/09/04 04:04:52;;;;;;;6.72;5.38;;;;;;;15.74;100.00;100549.97;5053794;28;20041;-71
2022/09/04 04:07:31;;;;;;;7.90;5.30;;;;;;;15.62;100.00;100550.88;5053792;28;20090;-73
2022/09/04 04:10:17;;;;;;;6.90;4.13;;;;;;;15.60;100.00;100562.69;5053408;28;20376;-73
2022/09/04 04:13:11;;;;;;;6.40;4.93;;;;;;;15.67;100.00;100556.78;5053812;28;20053;-73
2022/09/04 04:15:50;;;;;;;8.63;5.60;;;;;;;15.71;100.00;100554.69;5053020;28;20052;-74
2022/09/04 04:18:35;;;;;;;7.03;4.38;;;;;;;15.86;100.00;100564.28;5053585;28;20045;-72
2022/09/04 04:21:13;;;;;;;6.57;3.63;;;;;;;15.77;100.00;100561.44;5053250;28;20087;-71
2022/09/04 04:24:08;;;;;;;7.18;3.72;;;;;;;15.79;100.00;100564.88;5053448;28;20487;-71
2022/09/04 04:26:49;;;;;;;6.75;3.83;;;;;;;15.79;100.00;100572.94;5053498;28;20051;-72
2022/09/04 04:29:42;;;;;;;5.75;3.92;;;;;;;15.87;100.00;100592.03;5053317;28;20040;-72
2022/09/04 04:32:32;;;;;;;7.47;3.88;;;;;;;15.85;100.00;100600.22;5053260;28;20041;-72
2022/09/04 04:35:12;;;;;;;5.63;3.92;;;;;;;15.74;100.00;100594.81;5053168;28;20071;-71
2022/09/04 04:37:53;;;;;;;9.13;4.03;;;;;;;15.87;100.00;100598.28;5053227;28;20041;-72
2022/09/04 04:40:38;;;;;;;5.80;3.60;;;;;;;15.60;100.00;100605.72;5053226;28;20044;-72
2022/09/04 04:43:14;;;;;;;5.18;3.92;;;;;;;15.62;100.00;100606.47;5053114;28;20463;-72
2022/09/04 04:45:51;;;;;;;5.65;3.40;;;;;;;15.69;100.00;100605.06;5052665;28;20076;-72
2022/09/04 04:48:54;;;;;;;4.07;2.90;;;;;;;15.73;100.00;100607.41;5053009;28;20072;-71
2022/09/04 04:51:39;;;;;;;4.70;3.25;;;;;;;15.81;100.00;100612.19;5052809;28;20499;-71
2022/09/04 04:54:25;;;;;;;4.68;3.00;;;;;;;15.90;100.00;100614.16;5053077;28;20103;-72
2022/09/04 04:57:03;;;;;;;4.55;2.80;;;;;;;15.95;100.00;100617.38;5052675;28;20122;-72
2022/09/04 04:59:43;;;;;;;4.47;3.03;;;;;;;15.79;100.00;100611.44;5052995;28;20044;-72
2022/09/04 05:02:29;;;;;;;3.67;2.63;;;;;;;15.80;100.00;100607.78;5052509;28;20377;-72
2022/09/04 05:05:09;;;;;;;5.32;2.90;;;;;;;15.84;100.00;100617.34;5052362;28;20057;-72
2022/09/04 05:07:46;;;;;;;4.78;2.90;;;;;;;15.92;100.00;100617.63;5051353;28;20064;-72
2022/09/04 05:10:21;;;;;;;4.95;2.70;;;;;;;15.84;100.00;100622.72;5052609;28;20045;-72
2022/09/04 05:12:59;;;;;;;4.63;2.85;;;;;;;15.68;100.00;100627.53;5052536;28;20072;-72
2022/09/04 05:15:34;;;;;;;3.78;2.60;;;;;;;15.85;100.00;100623.59;5052530;28;20044;-72
2022/09/04 05:18:28;;;;;;;4.57;2.92;;;;;;;15.87;100.00;100630.56;5051020;28;20092;-72
2022/09/04 05:21:05;;;;;;;5.45;3.30;;;;;;;15.92;100.00;100639.16;5052096;28;20069;-72
2022/09/04 05:23:39;;;;;;;5.78;3.42;;;;;;;15.96;100.00;100635.22;5052470;28;20117;-72
2022/09/04 05:26:17;;;;;;;7.35;3.55;;;;;;;16.03;100.00;100641.00;5052118;28;20127;-72
2022/09/04 05:28:58;;;;;;;7.10;3.50;;;;;;;16.10;100.00;100630.63;5052081;28;20554;-72
2022/09/04 05:31:37;;;;;;;4.28;3.08;;;;;;;16.36;100.00;100637.53;5052513;28;20495;-72
2022/09/04 05:34:15;;;;;;;5.38;3.17;;;;;;;16.44;100.00;100635.09;5052174;28;20399;-74
2022/09/04 05:36:54;;;;;;;5.88;3.00;;;;;;;16.52;100.00;100634.50;5052007;28;20127;-75
2022/09/04 05:39:29;;;;;;;6.32;3.38;;;;;;;16.51;100.00;100647.09;5052129;28;20045;-74
2022/09/04 05:42:19;;;;;;;4.93;3.28;;;;;;;16.59;100.00;100655.41;5051997;28;20037;-77
2022/09/04 05:44:58;;;;;;;4.80;2.70;;;;;;;16.73;100.00;100642.75;5051784;28;20059;-74
2022/09/04 05:47:37;;;;;;;4.47;3.00;;;;;;;16.72;100.00;100639.19;5051590;28;20505;-73
2022/09/04 05:50:21;;;;;;;4.90;3.00;;;;;;;16.79;100.00;100645.81;5051701;28;20053;-73
2022/09/04 05:53:10;;;;;;;5.80;3.25;;;;;;;16.81;100.00;100659.16;5051752;28;20115;-73
2022/09/04 05:56:03;;;;;;;5.50;2.90;;;;;;;16.62;100.00;100661.56;5051981;28;20041;-73
2022/09/04 05:58:42;;;;;;;4.55;2.85;;;;;;;16.66;100.00;100657.63;5037370;28;20100;-72
2022/09/04 06:01:25;;;;;;;5.22;3.53;;;;;;;16.78;100.00;100654.84;5031853;28;20041;-72
2022/09/04 06:04:17;;;;;;;4.40;2.85;;;;;;;16.71;100.00;100661.72;5031658;28;20491;-72
2022/09/04 06:06:54;;;;;;;6.03;3.03;;;;;;;17.01;100.00;100662.94;5003007;28;20065;-72
2022/09/04 06:09:31;;;;;;;4.95;3.10;;;;;;;16.89;100.00;100656.72;5032195;28;20042;-73
2022/09/04 06:12:18;;;;;;;5.15;3.33;;;;;;;16.87;100.00;100656.81;5031572;28;20480;-72
2022/09/04 06:15:09;;;;;;;4.82;2.78;;;;;;;16.71;100.00;100647.41;5031642;28;20042;-75
2022/09/04 06:17:55;;;;;;;4.10;2.85;;;;;;;16.82;100.00;100650.09;5031752;28;20502;-71
2022/09/04 06:20:48;;;;;;;6.03;2.97;;;;;;;16.81;100.00;100651.06;5031864;28;20062;-71
2022/09/04 06:23:48;;;;;;;4.90;2.90;;;;;;;16.79;100.00;100650.31;5030076;28;20049;-71
2022/09/04 06:26:38;;;;;;;5.13;3.13;;;;;;;16.68;100.00;100647.59;5030165;28;20057;-72
2022/09/04 06:29:50;;;;;;;4.53;2.92;;;;;;;16.96;100.00;100651.66;5029721;28;20077;-72
2022/09/04 06:32:33;;;;;;;4.70;2.75;;;;;;;16.82;100.00;100647.41;5031592;28;20440;-71
2022/09/04 06:35:17;;;;;;;4.22;2.97;;;;;;;16.79;100.00;100650.31;5031338;28;20507;-71
2022/09/04 06:37:57;;;;;;;5.32;2.50;;;;;;;16.80;100.00;100665.53;5031078;28;20052;-72
2022/09/04 06:40:41;;;;;;;6.03;2.80;;;;;;;16.99;100.00;100663.06;5031561;28;20047;-72
2022/09/04 06:43:23;;;;;;;4.15;2.60;;;;;;;17.14;100.00;100666.34;5030116;28;20060;-70
2022/09/04 06:46:07;;;;;;;4.97;3.25;;;;;;;16.81;100.00;100664.53;5031303;28;20475;-71
2022/09/04 06:48:49;;;;;;;4.50;2.80;;;;;;;16.90;100.00;100669.19;5030177;28;20441;-71
2022/09/04 06:51:31;;;;;;;4.13;2.92;;;;;;;16.94;100.00;100667.97;5031479;28;20433;-73
2022/09/04 06:54:11;;;;;;;3.78;2.60;;;;;;;16.97;100.00;100674.94;5030178;28;20057;-73
2022/09/04 06:56:56;;;;;;;6.28;3.08;;;;;;;16.96;100.00;100668.69;5031326;28;20447;-71
2022/09/04 06:59:37;;;;;;;4.63;2.97;;;;;;;16.93;100.00;100666.25;5030360;28;20072;-73
2022/09/04 07:02:20;;;;;;;4.50;2.95;;;;;;;17.17;100.00;100666.09;5030947;28;20049;-72
2022/09/04 07:05:02;;;;;;;5.70;3.28;;;;;;;16.94;100.00;100677.88;5031339;28;20064;-73
2022/09/04 07:07:39;;;;;;;3.70;2.80;;;;;;;17.13;100.00;100665.50;5032903;28;20052;-76
2022/09/04 07:10:12;;;;;;;6.00;3.40;;;;;;;17.15;100.00;100666.22;5037000;28;20054;-76
2022/09/04 07:13:22;;;;;;;5.35;3.10;;;;;;;17.21;100.00;100677.50;5034618;28;20140;-74
2022/09/04 07:16:16;;;;;;;5.13;2.97;;;;;;;17.12;100.00;100684.50;5034204;28;20042;-76
2022/09/04 07:19:17;;;;;;;4.80;2.88;;;;;;;16.87;100.00;100681.06;5022516;28;20049;-79
2022/09/04 07:22:03;;;;;;;5.38;2.80;;;;;;;17.03;100.00;100688.78;5034988;28;20038;-79
2022/09/04 07:25:00;;;;;;;4.60;3.10;;;;;;;17.19;100.00;100684.88;5054508;28;20075;-74
2022/09/04 07:27:44;;;;;;;4.85;2.97;;;;;;;17.05;100.00;100689.50;5054252;28;20045;-75
2022/09/04 07:30:14;;;;;;;7.05;3.05;;;;;;;17.19;100.00;100690.25;5054477;28;20044;-76
2022/09/04 07:32:49;;;;;;;6.82;3.42;;;;;;;17.31;100.00;100691.94;5054246;28;20041;-77
2022/09/04 07:35:21;;;;;;;5.55;3.08;;;;;;;17.42;100.00;100697.31;5054462;28;20415;-75
2022/09/04 07:37:57;;;;;;;6.22;3.72;;;;;;;17.46;100.00;100699.63;5054025;28;20114;-77
2022/09/04 07:40:34;;;;;;;5.57;3.70;;;;;;;17.40;100.00;100702.00;5052848;28;20103;-76
2022/09/04 07:43:13;;;;;;;5.45;3.70;;;;;;;17.53;100.00;100705.38;5053997;28;20053;-80
2022/09/04 07:45:50;;;;;;;5.68;4.03;;;;;;;17.37;100.00;100711.19;5052769;28;20076;-76
2022/09/04 07:48:27;;;;;;;7.00;4.03;;;;;;;17.43;100.00;100717.91;5041557;28;20123;-74
2022/09/04 07:51:03;;;;;;;5.32;3.42;;;;;;;17.62;100.00;100710.03;5033892;28;20038;-74
2022/09/04 07:53:47;;;;;;;5.47;4.05;;;;;;;17.60;100.00;100705.75;5032978;28;20443;-75
2022/09/04 07:56:30;;;;;;;5.63;3.72;;;;;;;17.79;100.00;100711.38;5032184;28;20136;-75
2022/09/04 07:59:31;;;;;;;5.25;3.97;;;;;;;17.81;100.00;100722.03;5033988;28;20045;-75
2022/09/04 08:02:23;;;;;;;5.22;3.67;;;;;;;17.87;100.00;100718.84;5033872;28;20540;-74
2022/09/04 08:05:16;;;;;;;5.95;3.58;;;;;;;18.13;100.00;100725.59;5033972;28;20128;-76
2022/09/04 08:08:16;;;;;;;5.00;3.70;;;;;;;18.15;100.00;100718.22;5033734;28;20108;-74
2022/09/04 08:11:09;;;;;;;5.13;3.80;;;;;;;18.36;100.00;100720.09;5033602;28;20045;-78
2022/09/04 08:14:15;;;;;;;5.97;3.80;;;;;;;18.55;100.00;100726.50;5033550;28;20050;-77
2022/09/04 08:17:00;;;;;;;6.15;4.25;;;;;;;18.36;100.00;100714.69;5033420;28;20144;-78
2022/09/04 08:19:41;;;;;;;5.30;3.60;;;;;;;18.55;100.00;100718.38;5032083;28;20049;-78
2022/09/04 08:22:17;;;;;;;5.97;3.80;;;;;;;18.53;100.00;100714.09;5033226;28;20045;-75
2022/09/04 08:25:03;;;;;;;5.28;4.05;;;;;;;18.76;100.00;100718.41;5033860;28;20049;-73
2022/09/04 08:27:53;;;;;;;6.25;3.85;;;;;;;18.54;100.00;100723.94;5034016;28;20045;-81
2022/09/04 08:30:22;;;;;;;5.82;4.07;;;;;;;18.51;100.00;100725.03;5033423;28;20514;-81
2022/09/04 08:33:15;;;;;;;9.02;4.05;;;;;;;18.62;100.00;100721.38;5033807;28;20120;-82
2022/09/04 08:35:52;;;;;;;5.82;4.57;;;;;;;18.76;100.00;100723.81;5033413;28;20052;-82
2022/09/04 08:38:50;;;;;;;5.97;3.90;;;;;;;19.07;100.00;100732.78;5033396;28;20045;-82
2022/09/04 08:42:04;;;;;;;6.63;3.90;;;;;;;19.27;99.10;100739.13;5032762;28;20057;-75
2022/09/04 08:45:07;;;;;;;6.95;4.10;;;;;;;19.38;95.89;100741.72;5049724;28;20044;-76
2022/09/04 08:48:17;;;;;;;6.43;3.83;;;;;;;19.23;97.82;100737.69;5053281;28;20060;-77
2022/09/04 08:51:29;;;;;;;5.47;3.78;;;;;;;19.32;97.34;100739.59;5057388;28;20052;-75
2022/09/04 08:54:40;;;;;;;6.45;4.15;;;;;;;19.37;96.55;100729.19;5032953;28;20057;-74
2022/09/04 08:57:47;;;;;;;7.03;4.53;;;;;;;19.42;95.68;100737.78;5030601;28;20061;-74
2022/09/04 09:00:18;;;;;;;6.90;4.07;;;;;;;19.51;95.05;100729.81;4989857;28;20053;-74
2022/09/04 09:03:22;;;;;;;6.63;3.75;;;;;;;19.68;93.50;100737.28;5037813;28;20464;-77
2022/09/04 09:06:23;;;;;;;;;;;;;;;19.78;92.95;100740.00;5018752;28;20056;-76
2022/09/04 09:09:30;;;;;;;6.63;4.13;;;;;;;19.82;95.86;100746.88;5010142;28;19929;-76
2022/09/04 09:12:38;;;;;;;5.68;4.15;;;;;;;19.49;95.77;100750.72;4988399;28;20110;-77
2022/09/04 09:15:46;;;;;;;5.75;3.92;;;;;;;19.47;100.00;100744.59;5052270;28;20048;-77
2022/09/04 09:18:49;;;;;;;6.63;4.38;;;;;;;19.80;92.61;100747.03;5051793;28;20045;-76
2022/09/04 09:21:37;;;;;;;6.13;4.20;;;;;;;19.66;93.06;100747.41;5036855;28;20060;-73
2022/09/04 09:24:29;;;;;;;7.10;4.13;;;;;;;19.77;92.04;100747.28;5051360;28;20076;-71
2022/09/04 09:27:21;;;;;;;5.93;4.10;;;;;;;19.95;91.55;100740.19;5052132;28;20040;-79
2022/09/04 09:30:06;;;;;;;6.55;4.38;;;;;;;20.21;88.52;100740.50;5051955;28;20049;-77
2022/09/04 09:33:22;;;;;;;5.95;4.22;;;;;;;20.00;90.74;100743.34;5049208;28;20426;-76
2022/09/04 09:36:06;;;;;;;5.53;3.72;;;;;;;20.11;88.45;100747.75;4990295;28;20052;-76
2022/09/04 09:38:54;;;;;;;7.50;4.40;;;;;;;20.06;87.94;100746.47;5051657;28;20460;-75
2022/09/04 09:42:14;;;;;;;7.20;4.80;;;;;;;20.20;87.71;100748.78;5050391;28;20128;-82
2022/09/04 09:45:08;;;;;;;6.32;4.30;;;;;;;20.20;90.46;100746.06;5045483;28;20045;-75
2022/09/04 09:48:14;;;;;;;6.63;4.35;;;;;;;20.54;86.39;100751.91;5051163;28;20408;-71
2022/09/04 09:51:11;;;;;;;7.20;4.40;;;;;;;20.62;86.66;100745.78;5051743;28;20502;-72
2022/09/04 09:54:18;;;;;;;5.25;3.92;;;;;;;20.37;87.99;100750.78;5050809;28;20063;-74
2022/09/04 09:57:26;;;;;;;7.20;4.40;;;;;;;20.54;86.85;100751.91;5051438;28;20060;-81
2022/09/04 10:00:22;;;;;;;5.90;3.90;;;;;;;20.51;87.36;100744.94;5050093;28;20415;-77
2022/09/04 10:03:24;;;;;;;6.25;4.05;;;;;;;20.48;86.71;100747.09;5049891;28;20045;-70
2022/09/04 10:06:26;;;;;;;5.95;4.25;;;;;;;20.38;86.89;100748.91;5049095;28;20144;-77
2022/09/04 10:09:28;;;;;;;6.20;4.38;;;;;;;20.20;89.67;100748.78;5033715;28;20139;-76
2022/09/04 10:12:27;;;;;;;6.88;4.30;;;;;;;20.62;86.16;100745.78;5051109;28;20064;-76
2022/09/04 10:15:16;;;;;;;6.60;4.13;;;;;;;20.43;86.83;100752.91;5050098;28;20036;-76
2022/09/04 10:18:24;;;;;;;7.63;4.28;;;;;;;20.27;90.82;100749.91;5049870;28;20048;-76
2022/09/04 10:21:12;;;;;;;7.32;4.40;;;;;;;20.35;88.69;100751.88;5051193;28;20041;-75
2022/09/04 10:24:05;;;;;;;5.63;4.07;;;;;;;20.51;88.44;100753.06;5051292;28;20550;-76
2022/09/04 10:27:03;;;;;;;7.20;4.28;;;;;;;20.33;89.62;100752.03;5049747;28;20076;-75
2022/09/04 10:30:05;;;;;;;8.05;4.72;;;;;;;19.87;92.73;100758.13;5051204;28;20484;-76
2022/09/04 10:33:02;;;;;;;5.75;3.90;;;;;;;20.14;93.03;100747.47;5049601;28;20491;-76
2022/09/04 10:35:56;;;;;;;7.45;4.20;;;;;;;20.31;92.20;100745.91;5051014;28;20052;-75
2022/09/04 10:40:34;;;;;;;5.85;4.15;;;;;;;20.15;93.25;100745.63;5050985;28;20055;-75
2022/09/04 10:41:43;;;;;;;7.50;4.35;;;;;;;20.15;93.06;100749.19;5051068;28;20196;-76
2022/09/04 10:44:40;;;;;;;6.00;3.95;;;;;;;20.18;93.18;100750.78;5052868;28;20120;-76
2022/09/04 10:47:23;;;;;;;5.85;4.13;;;;;;;20.04;95.20;100759.28;5054458;28;20057;-75
2022/09/04 10:50:26;;;;;;;6.95;4.40;;;;;;;19.93;94.35;100747.59;5053535;28;20053;-75
2022/09/04 10:53:23;;;;;;;6.07;4.10;;;;;;;19.94;94.69;100746.59;5022460;28;20436;-75
2022/09/04 10:56:05;;;;;;;7.85;4.40;;;;;;;19.99;94.77;100741.63;5054819;28;20068;-75
2022/09/04 10:58:51;;;;;;;6.13;4.22;;;;;;;20.13;93.99;100745.75;5054734;28;20391;-75
2022/09/04 11:01:52;;;;;;;6.65;4.25;;;;;;;20.16;93.62;100748.19;5052858;28;20063;-75
2022/09/04 11:04:58;;;;;;;6.10;4.15;;;;;;;20.12;94.73;100754.03;5054031;28;20041;-75
2022/09/04 11:07:51;;;;;;;6.90;4.22;;;;;;;20.01;96.49;100742.34;5047461;28;20081;-79
2022/09/04 11:10:56;;;;;;;7.53;4.50;;;;;;;20.19;94.95;100750.63;5054809;28;20051;-75
2022/09/04 11:13:55;;;;;;;6.55;4.40;;;;;;;20.10;97.10;100739.78;5052110;28;20531;-84
2022/09/04 11:16:53;;;;;;;10.25;4.80;;;;;;;20.08;95.75;100745.34;5052860;28;20103;-78
2022/09/04 11:20:16;;;;;;;5.95;4.40;;;;;;;20.22;95.78;100741.34;5046548;28;20148;-80
2022/09/04 11:23:19;;;;;;;8.85;4.55;;;;;;;20.27;97.50;100747.22;5034535;28;20064;-74
2022/09/04 11:26:25;;;;;;;6.47;4.25;;;;;;;20.62;92.43;100745.78;5038482;28;20056;-74
2022/09/04 11:29:23;;;;;;;8.68;4.60;;;;;;;20.39;93.63;100747.91;5045905;28;20056;-79
2022/09/04 11:32:11;;;;;;;7.03;4.50;;;;;;;20.47;94.46;100743.53;5056804;28;20044;-74
2022/09/04 11:35:12;;;;;;;8.60;4.70;;;;;;;20.40;94.00;100745.06;5063504;28;20041;-78
2022/09/04 11:37:59;;;;;;;8.73;5.18;;;;;;;20.41;93.94;100749.47;5064325;28;20480;-77
2022/09/04 11:41:08;;;;;;;5.63;4.15;;;;;;;20.54;91.69;100747.34;5059002;28;20055;-76
2022/09/04 11:44:04;;;;;;;7.32;4.40;;;;;;;20.35;93.56;100750.03;5055124;28;20395;-74
2022/09/04 11:46:57;;;;;;;6.93;4.65;;;;;;;20.68;91.69;100758.75;5055339;28;20457;-74
2022/09/04 11:49:43;;;;;;;;;;;;;;;20.71;90.12;100750.31;5053113;28;20080;-75
2022/09/04 11:52:27;;;;;;;8.02;5.00;;;;;;;20.80;90.03;100757.59;5039812;28;19927;-73
2022/09/04 11:55:30;;;;;;;7.25;4.30;;;;;;;20.85;90.98;100749.88;5053093;28;20045;-77
2022/09/04 11:58:21;;;;;;;9.23;4.38;;;;;;;21.01;87.85;100747.38;5053779;28;20045;-75
2022/09/04 12:00:58;;;;;;;6.15;4.10;;;;;;;21.03;88.66;100745.38;5053574;28;20045;-75
2022/09/04 12:03:58;;;;;;;7.93;4.88;;;;;;;20.85;90.25;100744.47;5051896;28;20049;-75
2022/09/04 12:06:37;;;;;;;5.68;4.60;;;;;;;21.01;88.46;100739.25;5051827;28;20482;-75
2022/09/04 12:09:22;;;;;;;6.80;4.55;;;;;;;21.03;87.09;100731.81;5053366;28;20041;-75
2022/09/04 12:12:26;;;;;;;8.45;4.72;;;;;;;21.35;83.42;100730.59;5052254;28;20139;-74
2022/09/04 12:15:12;;;;;;;6.55;5.20;;;;;;;21.52;82.70;100727.09;5031904;28;20385;-75
2022/09/04 12:18:25;;;;;;;7.07;4.20;;;;;;;21.48;82.55;100731.09;5053381;28;20486;-75
2022/09/04 12:21:21;;;;;;;6.97;4.60;;;;;;;21.49;79.58;100734.66;5053221;28;20521;-75
2022/09/04 12:24:11;;;;;;;7.90;4.70;;;;;;;21.66;81.48;100729.28;5053226;28;20487;-75
2022/09/04 12:27:04;;;;;;;6.10;4.40;;;;;;;21.84;79.75;100720.31;5053514;28;20407;-75
2022/09/04 12:30:04;;;;;;;7.95;4.43;;;;;;;22.14;74.07;100717.25;5051513;28;20056;-75
2022/09/04 12:33:06;;;;;;;6.47;4.30;;;;;;;22.19;70.17;100712.19;5052921;28;20089;-75
2022/09/04 12:36:05;;;;;;;6.85;4.38;;;;;;;22.03;69.38;100719.31;5053060;28;20065;-75
2022/09/04 12:39:10;;;;;;;7.07;3.97;;;;;;;22.17;68.59;100716.94;5052837;28;20041;-76
2022/09/04 12:41:48;;;;;;;6.53;3.90;;;;;;;22.07;71.58;100720.72;5051643;28;20448;-75
2022/09/04 12:44:29;;;;;;;6.20;3.70;;;;;;;22.27;69.12;100717.69;5051352;28;20072;-76
2022/09/04 12:47:12;;;;;;;9.45;3.95;;;;;;;22.23;69.38;100719.03;5052309;28;20151;-75
2022/09/04 12:50:14;;;;;;;8.23;4.18;;;;;;;22.14;69.64;100714.53;5051547;28;20052;-76